Piper Inness — WDC3984 — position and weather

sailwx.info

Track history (hours):
 
Tides and Currents Weather Stations Pressure Air Temp Water Temp Dewpoint Dewpoint Depression Visibility Wind Speed Wind Dir Waves Ship Positions

Piper Inness

Owner: Foss Maritime Co, Seattle, WA. More information available from US FCC via Universal Licensing System and Coast Guard Vessel Documentation Center.

Last reported at 2016-Feb-09 02:33 UTC. Time now 2016-Feb-09 03:31 UTC.
Position N 33°46' W 118°13'.

; draft 2 m.

Type: Other ship. MMSI: 367017440.

Date/timePositionNaut miles runAvg speedWind from/ knotsBaromVisibWave heightAir tempDewpointWater temp
2016-Feb-09 02:33N 33°46' W 118°13'0 0.0
2016-Feb-09 01:32N 33°46' W 118°13'0 0.0
2016-Feb-09 00:33N 33°46' W 118°13'0 0.0
2016-Feb-08 23:33N 33°46' W 118°13'0 0.0
2016-Feb-08 22:33N 33°46' W 118°13'0 0.0
2016-Feb-08 21:33N 33°46' W 118°13'0 0.0
2016-Feb-08 20:32N 33°46' W 118°13'0 0.0
2016-Feb-08 19:33N 33°46' W 118°13'0 0.3
2016-Feb-08 18:33N 33°46' W 118°13'0 0.3
2016-Feb-08 17:29N 33°46' W 118°13'0 0.0
2016-Feb-08 16:33N 33°46' W 118°13'0 0.0
2016-Feb-08 15:30N 33°46' W 118°13'0 0.0
2016-Feb-08 14:33N 33°46' W 118°13'0 0.0
2016-Feb-08 13:14N 33°46' W 118°13'0 0.0
2016-Feb-08 12:33N 33°46' W 118°13'0 0.0
2016-Feb-08 11:32N 33°46' W 118°13'0 0.0
2016-Feb-08 10:33N 33°46' W 118°13'0 0.0
2016-Feb-08 09:31N 33°46' W 118°13'0 0.0
2016-Feb-08 08:33N 33°46' W 118°13'0 0.0
2016-Feb-08 07:29N 33°46' W 118°13'0 0.0
2016-Feb-08 06:29N 33°46' W 118°13'0 0.0
2016-Feb-08 05:34N 33°46' W 118°13'0 0.0
2016-Feb-08 04:31N 33°46' W 118°13'0 0.0
2016-Feb-08 03:28N 33°46' W 118°13'0 0.0
2016-Feb-08 02:29N 33°46' W 118°13'0 0.0
2016-Feb-08 01:31N 33°46' W 118°13'0 0.0
2016-Feb-07 22:09N 33°46' W 118°13'0 0.0
2016-Feb-07 21:32N 33°46' W 118°13'0 0.0
2016-Feb-07 20:33N 33°46' W 118°13'0 0.0
2016-Feb-07 19:33N 33°46' W 118°13'0 0.0
2016-Feb-07 18:33N 33°46' W 118°13'0 0.0
2016-Feb-07 17:30N 33°46' W 118°13'0 0.0
2016-Feb-07 16:33N 33°46' W 118°13'0 0.0
2016-Feb-07 15:34N 33°46' W 118°13'0 0.0
2016-Feb-07 14:31N 33°46' W 118°13'0 0.0
2016-Feb-07 13:28N 33°46' W 118°13'0 0.0
2016-Feb-07 12:32N 33°46' W 118°13'0 0.0
2016-Feb-07 11:08N 33°46' W 118°13'0 0.0
2016-Feb-07 10:33N 33°46' W 118°13'0 0.0
2016-Feb-07 09:04N 33°46' W 118°13'0 0.0
2016-Feb-07 08:19N 33°46' W 118°13'0 0.0
2016-Feb-07 07:27N 33°46' W 118°13'0 0.0
2016-Feb-07 06:33N 33°46' W 118°13'0 0.0
2016-Feb-07 05:33N 33°46' W 118°13'0 0.0
2016-Feb-07 04:34N 33°46' W 118°13'0 0.1
2016-Feb-07 03:33N 33°46' W 118°13'19 9.5
2016-Feb-07 01:33N 33°29' W 118°04'2613.1
2016-Feb-06 23:33N 33°04' W 117°52'1 0.9
2016-Feb-06 22:33N 33°05' W 117°52'1 0.8
2016-Feb-06 21:33N 33°06' W 117°51'2 1.8
2016-Feb-06 20:33N 33°05' W 117°49'2 2.1
2016-Feb-06 19:31N 33°03' W 117°48'2 1.7
2016-Feb-06 18:33N 33°02' W 117°49'1 1.3
2016-Feb-06 17:33N 33°00' W 117°48'2 1.8
2016-Feb-06 16:33N 32°59' W 117°47'1 0.5
2016-Feb-06 15:33N 32°59' W 117°47'1 0.6
2016-Feb-06 14:33N 32°59' W 117°46'3 2.8
2016-Feb-06 13:33N 32°57' W 117°43'0 0.4
2016-Feb-06 12:33N 32°57' W 117°43'2 2.4
2016-Feb-06 11:33N 32°57' W 117°46'1 0.8
2016-Feb-06 10:33N 32°57' W 117°46'1 0.8
2016-Feb-06 09:33N 32°56' W 117°47'1 0.9
2016-Feb-06 08:33N 32°56' W 117°48'1 1.5
2016-Feb-06 07:34N 32°55' W 117°49'0 0.5
2016-Feb-06 06:33N 32°56' W 117°49'4 3.7
2016-Feb-06 05:33N 32°59' W 117°52'4 4.2
2016-Feb-06 04:33N 33°03' W 117°53'3 3.2
2016-Feb-06 03:33N 33°05' W 117°55'5 5.3
2016-Feb-06 02:31N 33°10' W 117°58'8 8.4
2016-Feb-06 01:33N 33°03' W 118°03'0 0.3
2016-Feb-06 00:24N 33°03' W 118°03'0 0.2
2016-Feb-05 23:33N 33°03' W 118°03'1211.7
2016-Feb-05 22:33N 33°14' W 118°02'3215.6
2016-Feb-05 20:32N 33°45' W 118°13'2 1.7
2016-Feb-05 19:32N 33°46' W 118°13'1 0.7
2016-Feb-05 18:34N 33°46' W 118°13'1 0.7
2016-Feb-05 17:34N 33°46' W 118°13'0 0.0
2016-Feb-05 16:32N 33°46' W 118°13'0 0.0
2016-Feb-05 15:33N 33°46' W 118°13'0 0.0
2016-Feb-05 14:33N 33°46' W 118°13'0 0.0
2016-Feb-05 13:33N 33°46' W 118°13'0 0.0
2016-Feb-05 12:33N 33°46' W 118°13'0 0.0
2016-Feb-05 11:33N 33°46' W 118°13'0 0.0
2016-Feb-05 10:33N 33°46' W 118°13'0 0.0
2016-Feb-05 09:33N 33°46' W 118°13'0 0.0
2016-Feb-05 08:33N 33°46' W 118°13'0 0.0
2016-Feb-05 07:33N 33°46' W 118°13'0 0.0
2016-Feb-05 06:33N 33°46' W 118°13'0 0.0
2016-Feb-05 05:33N 33°46' W 118°13'0 0.0
2016-Feb-05 04:33N 33°46' W 118°13'0 0.0
2016-Feb-05 03:33N 33°46' W 118°13'0 0.0
2016-Feb-05 02:33N 33°46' W 118°13'0 0.0
2016-Feb-05 01:33N 33°46' W 118°13'0 0.0
2016-Feb-05 00:33N 33°46' W 118°13'0 0.0
2016-Feb-04 23:33N 33°46' W 118°13'0 0.0
2016-Feb-04 22:33N 33°46' W 118°13'0 0.0
2016-Feb-04 21:33N 33°46' W 118°13'0 0.0
2016-Feb-04 20:33N 33°46' W 118°13'0 0.0
2016-Feb-04 19:33N 33°46' W 118°13'0 0.0
2016-Feb-04 18:33N 33°46' W 118°13'0 0.0
2016-Feb-04 17:33N 33°46' W 118°13'0 0.0
2016-Feb-04 16:33N 33°46' W 118°13'0 0.0
2016-Feb-04 15:33N 33°46' W 118°13'0 0.0
2016-Feb-04 14:33N 33°46' W 118°13'0 0.0
2016-Feb-04 13:32N 33°46' W 118°13'0 0.0
2016-Feb-04 12:33N 33°46' W 118°13'0 0.0
2016-Feb-04 11:33N 33°46' W 118°13'0 0.0
2016-Feb-04 10:33N 33°46' W 118°13'0 0.0
2016-Feb-04 09:33N 33°46' W 118°13'2 2.1
2016-Feb-04 08:33N 33°44' W 118°12'2116.0
2016-Feb-04 07:12N 33°25' W 118°02'1416.5
2016-Feb-04 06:22N 33°12' W 117°56'4 3.5
2016-Feb-04 05:17N 33°08' W 117°54'2 3.3
2016-Feb-04 04:32N 33°06' W 117°52'1 0.8
2016-Feb-04 03:33N 33°06' W 117°51'3 2.7
2016-Feb-04 02:33N 33°04' W 117°49'0 0.4
2016-Feb-04 01:33N 33°05' W 117°49'2 1.8
2016-Feb-04 00:33N 33°03' W 117°48'1 0.7
2016-Feb-03 23:33N 33°04' W 117°47'2 2.3
2016-Feb-03 22:33N 33°03' W 117°45'1 1.3
2016-Feb-03 21:33N 33°03' W 117°46'3 3.1
2016-Feb-03 20:33N 33°01' W 117°48'2 1.9
2016-Feb-03 19:33N 33°01' W 117°50'3 3.2
2016-Feb-03 18:34N 32°60' W 117°47'2 1.6
2016-Feb-03 17:33N 33°01' W 117°48'3 3.2
2016-Feb-03 16:32N 33°01' W 117°44'2 1.9
2016-Feb-03 15:33N 32°59' W 117°46'2 1.7
2016-Feb-03 14:33N 32°58' W 117°44'0 0.5
2016-Feb-03 13:33N 32°58' W 117°44'3 2.8
2016-Feb-03 12:33N 32°57' W 117°41'1 0.7
2016-Feb-03 11:33N 32°56' W 117°42'0 0.4
2016-Feb-03 10:33N 32°56' W 117°42'1 0.6
2016-Feb-03 09:33N 32°56' W 117°41'2 2.3
2016-Feb-03 08:33N 32°55' W 117°44'2 1.9
2016-Feb-03 07:33N 32°53' W 117°42'2 1.6
2016-Feb-03 06:33N 32°53' W 117°44'1 0.9
2016-Feb-03 05:33N 32°54' W 117°45'1 0.7
2016-Feb-03 04:33N 32°54' W 117°44'3 2.8
2016-Feb-03 03:33N 32°56' W 117°47'2 1.9
2016-Feb-03 02:33N 32°58' W 117°47'3 3.0
2016-Feb-03 01:33N 32°59' W 117°50'6 5.8
2016-Feb-03 00:33N 33°04' W 117°53'6 4.5
2016-Feb-02 23:14N 33°10' W 117°56'1 0.8
2016-Feb-02 22:30N 33°10' W 117°56'3712.3
2016-Feb-02 19:30N 33°44' W 118°13'2 2.2
2016-Feb-02 18:26N 33°46' W 118°13'0 0.0
2016-Feb-02 17:32N 33°46' W 118°13'0 0.0
2016-Feb-02 16:33N 33°46' W 118°13'0 0.0
2016-Feb-02 15:33N 33°46' W 118°13'0 0.0
2016-Feb-02 14:33N 33°46' W 118°13'0 0.0
2016-Feb-02 13:33N 33°46' W 118°13'0 0.0
2016-Feb-02 12:33N 33°46' W 118°13'0 0.0
2016-Feb-02 11:33N 33°46' W 118°13'0 0.0
2016-Feb-02 10:33N 33°46' W 118°13'0 0.0
2016-Feb-02 09:33N 33°46' W 118°13'0 0.0
2016-Feb-02 08:33N 33°46' W 118°13'0 0.0
2016-Feb-02 07:33N 33°46' W 118°13'0 0.0
2016-Feb-02 06:33N 33°46' W 118°13'0 0.0
2016-Feb-02 05:33N 33°46' W 118°13'0 0.0
2016-Feb-02 04:33N 33°46' W 118°13'0 0.0
2016-Feb-02 03:33N 33°46' W 118°13'0 0.0
2016-Feb-02 02:33N 33°46' W 118°13'0 0.0
2016-Feb-02 01:33N 33°46' W 118°13'0 0.0
2016-Feb-02 00:33N 33°46' W 118°13'0 0.0
2016-Feb-01 23:33N 33°46' W 118°13'0 0.0
2016-Feb-01 22:28N 33°46' W 118°13'0 0.0
2016-Feb-01 21:33N 33°46' W 118°13'0 0.0
2016-Feb-01 20:33N 33°46' W 118°13'0 0.0
2016-Feb-01 19:33N 33°46' W 118°13'0 0.0
2016-Feb-01 18:33N 33°46' W 118°13'0 0.0
2016-Feb-01 17:33N 33°46' W 118°13'0 0.0
2016-Feb-01 16:28N 33°46' W 118°13'0 0.0
2016-Feb-01 15:32N 33°46' W 118°13'0 0.0
2016-Feb-01 14:33N 33°46' W 118°13'0 0.0
2016-Feb-01 13:33N 33°46' W 118°13'0 0.0
2016-Feb-01 12:31N 33°46' W 118°13'0 0.0
2016-Feb-01 11:33N 33°46' W 118°13'0 0.0
2016-Feb-01 10:30N 33°46' W 118°13'0 0.0
2016-Feb-01 09:33N 33°46' W 118°13'0 0.0
2016-Feb-01 08:32N 33°46' W 118°13'0 0.0
2016-Feb-01 07:31N 33°46' W 118°13'0 0.0
2016-Feb-01 06:33N 33°46' W 118°13'0 0.0
2016-Feb-01 05:33N 33°46' W 118°13'0 0.0
2016-Feb-01 04:33N 33°46' W 118°13'0 0.0
2016-Feb-01 03:33N 33°46' W 118°13'0 0.0
2016-Feb-01 02:33N 33°46' W 118°13'0 0.0
2016-Feb-01 01:33N 33°46' W 118°13'0 0.0
2016-Feb-01 00:33N 33°46' W 118°13'0 0.0
2016-Jan-31 23:33N 33°46' W 118°13'0 0.0
2016-Jan-31 22:33N 33°46' W 118°13'0 0.0
2016-Jan-31 21:33N 33°46' W 118°13'0 0.0
2016-Jan-31 20:33N 33°46' W 118°13'0 0.0
2016-Jan-31 19:33N 33°46' W 118°13'0 0.0
2016-Jan-31 18:33N 33°46' W 118°13'0 0.0
2016-Jan-31 17:33N 33°46' W 118°13'0 0.0
2016-Jan-31 16:32N 33°46' W 118°13'0 0.0
2016-Jan-31 15:32N 33°46' W 118°13'0 0.0
2016-Jan-31 14:30N 33°46' W 118°13'0 0.0
2016-Jan-31 13:32N 33°46' W 118°13'0 0.0
2016-Jan-31 12:28N 33°46' W 118°13'0 0.0
2016-Jan-31 11:33N 33°46' W 118°13'0 0.0
2016-Jan-31 10:32N 33°46' W 118°13'0 0.0
2016-Jan-31 09:32N 33°46' W 118°13'0 0.0
2016-Jan-31 08:33N 33°46' W 118°13'0 0.0
2016-Jan-31 07:30N 33°46' W 118°13'0 0.0
2016-Jan-31 06:33N 33°46' W 118°13'0 0.0
2016-Jan-31 05:31N 33°46' W 118°13'0 0.0
2016-Jan-31 04:33N 33°46' W 118°13'0 0.0
2016-Jan-31 03:29N 33°46' W 118°13'0 0.0
2016-Jan-31 02:33N 33°46' W 118°13'0 0.0
2016-Jan-31 01:33N 33°46' W 118°13'0 0.0
2016-Jan-31 00:28N 33°46' W 118°13'0 0.0
2016-Jan-30 23:33N 33°46' W 118°13'0 0.0
2016-Jan-30 22:33N 33°46' W 118°13'0 0.0
2016-Jan-30 21:33N 33°46' W 118°13'0 0.0
2016-Jan-30 20:33N 33°46' W 118°13'0 0.0
2016-Jan-30 19:32N 33°46' W 118°13'0 0.0
2016-Jan-30 18:32N 33°46' W 118°13'0 0.0
2016-Jan-30 17:33N 33°46' W 118°13'0 0.0
2016-Jan-30 16:33N 33°46' W 118°13'0 0.0
2016-Jan-30 15:33N 33°46' W 118°13'0 0.0
2016-Jan-30 14:32N 33°46' W 118°13'0 0.0
2016-Jan-30 13:33N 33°46' W 118°13'0 0.0
2016-Jan-30 12:32N 33°46' W 118°13'0 0.0
2016-Jan-30 11:32N 33°46' W 118°13'0 0.0
2016-Jan-30 10:33N 33°46' W 118°13'0 0.0
2016-Jan-30 09:33N 33°46' W 118°13'0 0.0
2016-Jan-30 08:33N 33°46' W 118°13'0 0.0
2016-Jan-30 07:33N 33°46' W 118°13'0 0.0
2016-Jan-30 06:33N 33°46' W 118°13'1 0.9
2016-Jan-30 05:33N 33°45' W 118°13'1514.5
2016-Jan-30 04:33N 33°32' W 118°05'1716.7
2016-Jan-30 03:33N 33°17' W 117°57'1212.6
2016-Jan-30 02:33N 33°06' W 117°51'  
Track history (hours):
 
Tides and Currents Weather Stations Pressure Air Temp Water Temp Dewpoint Dewpoint Depression Visibility Wind Speed Wind Dir Waves Ship Positions

Piper Inness

Owner: Foss Maritime Co, Seattle, WA. More information available from US FCC via Universal Licensing System and Coast Guard Vessel Documentation Center.

Last reported at 2016-Feb-09 02:33 UTC. Time now 2016-Feb-09 03:31 UTC.
Position N 33°46' W 118°13'.

; draft 2 m.

Type: Other ship. MMSI: 367017440.

Date/timePositionNaut miles runAvg speedWind from/ knotsBaromVisibWave heightAir tempDewpointWater temp
2016-Feb-09 02:33N 33°46' W 118°13'0 0.0
2016-Feb-09 01:32N 33°46' W 118°13'0 0.0
2016-Feb-09 00:33N 33°46' W 118°13'0 0.0
2016-Feb-08 23:33N 33°46' W 118°13'0 0.0
2016-Feb-08 22:33N 33°46' W 118°13'0 0.0
2016-Feb-08 21:33N 33°46' W 118°13'0 0.0
2016-Feb-08 20:32N 33°46' W 118°13'0 0.0
2016-Feb-08 19:33N 33°46' W 118°13'0 0.3
2016-Feb-08 18:33N 33°46' W 118°13'0 0.3
2016-Feb-08 17:29N 33°46' W 118°13'0 0.0
2016-Feb-08 16:33N 33°46' W 118°13'0 0.0
2016-Feb-08 15:30N 33°46' W 118°13'0 0.0
2016-Feb-08 14:33N 33°46' W 118°13'0 0.0
2016-Feb-08 13:14N 33°46' W 118°13'0 0.0
2016-Feb-08 12:33N 33°46' W 118°13'0 0.0
2016-Feb-08 11:32N 33°46' W 118°13'0 0.0
2016-Feb-08 10:33N 33°46' W 118°13'0 0.0
2016-Feb-08 09:31N 33°46' W 118°13'0 0.0
2016-Feb-08 08:33N 33°46' W 118°13'0 0.0
2016-Feb-08 07:29N 33°46' W 118°13'0 0.0
2016-Feb-08 06:29N 33°46' W 118°13'0 0.0
2016-Feb-08 05:34N 33°46' W 118°13'0 0.0
2016-Feb-08 04:31N 33°46' W 118°13'0 0.0
2016-Feb-08 03:28N 33°46' W 118°13'0 0.0
2016-Feb-08 02:29N 33°46' W 118°13'0 0.0
2016-Feb-08 01:31N 33°46' W 118°13'0 0.0
2016-Feb-07 22:09N 33°46' W 118°13'0 0.0
2016-Feb-07 21:32N 33°46' W 118°13'0 0.0
2016-Feb-07 20:33N 33°46' W 118°13'0 0.0
2016-Feb-07 19:33N 33°46' W 118°13'0 0.0
2016-Feb-07 18:33N 33°46' W 118°13'0 0.0
2016-Feb-07 17:30N 33°46' W 118°13'0 0.0
2016-Feb-07 16:33N 33°46' W 118°13'0 0.0
2016-Feb-07 15:34N 33°46' W 118°13'0 0.0
2016-Feb-07 14:31N 33°46' W 118°13'0 0.0
2016-Feb-07 13:28N 33°46' W 118°13'0 0.0
2016-Feb-07 12:32N 33°46' W 118°13'0 0.0
2016-Feb-07 11:08N 33°46' W 118°13'0 0.0
2016-Feb-07 10:33N 33°46' W 118°13'0 0.0
2016-Feb-07 09:04N 33°46' W 118°13'0 0.0
2016-Feb-07 08:19N 33°46' W 118°13'0 0.0
2016-Feb-07 07:27N 33°46' W 118°13'0 0.0
2016-Feb-07 06:33N 33°46' W 118°13'0 0.0
2016-Feb-07 05:33N 33°46' W 118°13'0 0.0
2016-Feb-07 04:34N 33°46' W 118°13'0 0.1
2016-Feb-07 03:33N 33°46' W 118°13'19 9.5
2016-Feb-07 01:33N 33°29' W 118°04'2613.1
2016-Feb-06 23:33N 33°04' W 117°52'1 0.9
2016-Feb-06 22:33N 33°05' W 117°52'1 0.8
2016-Feb-06 21:33N 33°06' W 117°51'2 1.8
2016-Feb-06 20:33N 33°05' W 117°49'2 2.1
2016-Feb-06 19:31N 33°03' W 117°48'2 1.7
2016-Feb-06 18:33N 33°02' W 117°49'1 1.3
2016-Feb-06 17:33N 33°00' W 117°48'2 1.8
2016-Feb-06 16:33N 32°59' W 117°47'1 0.5
2016-Feb-06 15:33N 32°59' W 117°47'1 0.6
2016-Feb-06 14:33N 32°59' W 117°46'3 2.8
2016-Feb-06 13:33N 32°57' W 117°43'0 0.4
2016-Feb-06 12:33N 32°57' W 117°43'2 2.4
2016-Feb-06 11:33N 32°57' W 117°46'1 0.8
2016-Feb-06 10:33N 32°57' W 117°46'1 0.8
2016-Feb-06 09:33N 32°56' W 117°47'1 0.9
2016-Feb-06 08:33N 32°56' W 117°48'1 1.5
2016-Feb-06 07:34N 32°55' W 117°49'0 0.5
2016-Feb-06 06:33N 32°56' W 117°49'4 3.7
2016-Feb-06 05:33N 32°59' W 117°52'4 4.2
2016-Feb-06 04:33N 33°03' W 117°53'3 3.2
2016-Feb-06 03:33N 33°05' W 117°55'5 5.3
2016-Feb-06 02:31N 33°10' W 117°58'8 8.4
2016-Feb-06 01:33N 33°03' W 118°03'0 0.3
2016-Feb-06 00:24N 33°03' W 118°03'0 0.2
2016-Feb-05 23:33N 33°03' W 118°03'1211.7
2016-Feb-05 22:33N 33°14' W 118°02'3215.6
2016-Feb-05 20:32N 33°45' W 118°13'2 1.7
2016-Feb-05 19:32N 33°46' W 118°13'1 0.7
2016-Feb-05 18:34N 33°46' W 118°13'1 0.7
2016-Feb-05 17:34N 33°46' W 118°13'0 0.0
2016-Feb-05 16:32N 33°46' W 118°13'0 0.0
2016-Feb-05 15:33N 33°46' W 118°13'0 0.0
2016-Feb-05 14:33N 33°46' W 118°13'0 0.0
2016-Feb-05 13:33N 33°46' W 118°13'0 0.0
2016-Feb-05 12:33N 33°46' W 118°13'0 0.0
2016-Feb-05 11:33N 33°46' W 118°13'0 0.0
2016-Feb-05 10:33N 33°46' W 118°13'0 0.0
2016-Feb-05 09:33N 33°46' W 118°13'0 0.0
2016-Feb-05 08:33N 33°46' W 118°13'0 0.0
2016-Feb-05 07:33N 33°46' W 118°13'0 0.0
2016-Feb-05 06:33N 33°46' W 118°13'0 0.0
2016-Feb-05 05:33N 33°46' W 118°13'0 0.0
2016-Feb-05 04:33N 33°46' W 118°13'0 0.0
2016-Feb-05 03:33N 33°46' W 118°13'0 0.0
2016-Feb-05 02:33N 33°46' W 118°13'0 0.0
2016-Feb-05 01:33N 33°46' W 118°13'0 0.0
2016-Feb-05 00:33N 33°46' W 118°13'0 0.0
2016-Feb-04 23:33N 33°46' W 118°13'0 0.0
2016-Feb-04 22:33N 33°46' W 118°13'0 0.0
2016-Feb-04 21:33N 33°46' W 118°13'0 0.0
2016-Feb-04 20:33N 33°46' W 118°13'0 0.0
2016-Feb-04 19:33N 33°46' W 118°13'0 0.0
2016-Feb-04 18:33N 33°46' W 118°13'0 0.0
2016-Feb-04 17:33N 33°46' W 118°13'0 0.0
2016-Feb-04 16:33N 33°46' W 118°13'0 0.0
2016-Feb-04 15:33N 33°46' W 118°13'0 0.0
2016-Feb-04 14:33N 33°46' W 118°13'0 0.0
2016-Feb-04 13:32N 33°46' W 118°13'0 0.0
2016-Feb-04 12:33N 33°46' W 118°13'0 0.0
2016-Feb-04 11:33N 33°46' W 118°13'0 0.0
2016-Feb-04 10:33N 33°46' W 118°13'0 0.0
2016-Feb-04 09:33N 33°46' W 118°13'2 2.1
2016-Feb-04 08:33N 33°44' W 118°12'2116.0
2016-Feb-04 07:12N 33°25' W 118°02'1416.5
2016-Feb-04 06:22N 33°12' W 117°56'4 3.5
2016-Feb-04 05:17N 33°08' W 117°54'2 3.3
2016-Feb-04 04:32N 33°06' W 117°52'1 0.8
2016-Feb-04 03:33N 33°06' W 117°51'3 2.7
2016-Feb-04 02:33N 33°04' W 117°49'0 0.4
2016-Feb-04 01:33N 33°05' W 117°49'2 1.8
2016-Feb-04 00:33N 33°03' W 117°48'1 0.7
2016-Feb-03 23:33N 33°04' W 117°47'2 2.3
2016-Feb-03 22:33N 33°03' W 117°45'1 1.3
2016-Feb-03 21:33N 33°03' W 117°46'3 3.1
2016-Feb-03 20:33N 33°01' W 117°48'2 1.9
2016-Feb-03 19:33N 33°01' W 117°50'3 3.2
2016-Feb-03 18:34N 32°60' W 117°47'2 1.6
2016-Feb-03 17:33N 33°01' W 117°48'3 3.2
2016-Feb-03 16:32N 33°01' W 117°44'2 1.9
2016-Feb-03 15:33N 32°59' W 117°46'2 1.7
2016-Feb-03 14:33N 32°58' W 117°44'0 0.5
2016-Feb-03 13:33N 32°58' W 117°44'3 2.8
2016-Feb-03 12:33N 32°57' W 117°41'1 0.7
2016-Feb-03 11:33N 32°56' W 117°42'0 0.4
2016-Feb-03 10:33N 32°56' W 117°42'1 0.6
2016-Feb-03 09:33N 32°56' W 117°41'2 2.3
2016-Feb-03 08:33N 32°55' W 117°44'2 1.9
2016-Feb-03 07:33N 32°53' W 117°42'2 1.6
2016-Feb-03 06:33N 32°53' W 117°44'1 0.9
2016-Feb-03 05:33N 32°54' W 117°45'1 0.7
2016-Feb-03 04:33N 32°54' W 117°44'3 2.8
2016-Feb-03 03:33N 32°56' W 117°47'2 1.9
2016-Feb-03 02:33N 32°58' W 117°47'3 3.0
2016-Feb-03 01:33N 32°59' W 117°50'6 5.8
2016-Feb-03 00:33N 33°04' W 117°53'6 4.5
2016-Feb-02 23:14N 33°10' W 117°56'1 0.8
2016-Feb-02 22:30N 33°10' W 117°56'3712.3
2016-Feb-02 19:30N 33°44' W 118°13'2 2.2
2016-Feb-02 18:26N 33°46' W 118°13'0 0.0
2016-Feb-02 17:32N 33°46' W 118°13'0 0.0
2016-Feb-02 16:33N 33°46' W 118°13'0 0.0
2016-Feb-02 15:33N 33°46' W 118°13'0 0.0
2016-Feb-02 14:33N 33°46' W 118°13'0 0.0
2016-Feb-02 13:33N 33°46' W 118°13'0 0.0
2016-Feb-02 12:33N 33°46' W 118°13'0 0.0
2016-Feb-02 11:33N 33°46' W 118°13'0 0.0
2016-Feb-02 10:33N 33°46' W 118°13'0 0.0
2016-Feb-02 09:33N 33°46' W 118°13'0 0.0
2016-Feb-02 08:33N 33°46' W 118°13'0 0.0
2016-Feb-02 07:33N 33°46' W 118°13'0 0.0
2016-Feb-02 06:33N 33°46' W 118°13'0 0.0
2016-Feb-02 05:33N 33°46' W 118°13'0 0.0
2016-Feb-02 04:33N 33°46' W 118°13'0 0.0
2016-Feb-02 03:33N 33°46' W 118°13'0 0.0
2016-Feb-02 02:33N 33°46' W 118°13'0 0.0
2016-Feb-02 01:33N 33°46' W 118°13'0 0.0
2016-Feb-02 00:33N 33°46' W 118°13'0 0.0
2016-Feb-01 23:33N 33°46' W 118°13'0 0.0
2016-Feb-01 22:28N 33°46' W 118°13'0 0.0
2016-Feb-01 21:33N 33°46' W 118°13'0 0.0
2016-Feb-01 20:33N 33°46' W 118°13'0 0.0
2016-Feb-01 19:33N 33°46' W 118°13'0 0.0
2016-Feb-01 18:33N 33°46' W 118°13'0 0.0
2016-Feb-01 17:33N 33°46' W 118°13'0 0.0
2016-Feb-01 16:28N 33°46' W 118°13'0 0.0
2016-Feb-01 15:32N 33°46' W 118°13'0 0.0
2016-Feb-01 14:33N 33°46' W 118°13'0 0.0
2016-Feb-01 13:33N 33°46' W 118°13'0 0.0
2016-Feb-01 12:31N 33°46' W 118°13'0 0.0
2016-Feb-01 11:33N 33°46' W 118°13'0 0.0
2016-Feb-01 10:30N 33°46' W 118°13'0 0.0
2016-Feb-01 09:33N 33°46' W 118°13'0 0.0
2016-Feb-01 08:32N 33°46' W 118°13'0 0.0
2016-Feb-01 07:31N 33°46' W 118°13'0 0.0
2016-Feb-01 06:33N 33°46' W 118°13'0 0.0
2016-Feb-01 05:33N 33°46' W 118°13'0 0.0
2016-Feb-01 04:33N 33°46' W 118°13'0 0.0
2016-Feb-01 03:33N 33°46' W 118°13'0 0.0
2016-Feb-01 02:33N 33°46' W 118°13'0 0.0
2016-Feb-01 01:33N 33°46' W 118°13'0 0.0
2016-Feb-01 00:33N 33°46' W 118°13'0 0.0
2016-Jan-31 23:33N 33°46' W 118°13'0 0.0
2016-Jan-31 22:33N 33°46' W 118°13'0 0.0
2016-Jan-31 21:33N 33°46' W 118°13'0 0.0
2016-Jan-31 20:33N 33°46' W 118°13'0 0.0
2016-Jan-31 19:33N 33°46' W 118°13'0 0.0
2016-Jan-31 18:33N 33°46' W 118°13'0 0.0
2016-Jan-31 17:33N 33°46' W 118°13'0 0.0
2016-Jan-31 16:32N 33°46' W 118°13'0 0.0
2016-Jan-31 15:32N 33°46' W 118°13'0 0.0
2016-Jan-31 14:30N 33°46' W 118°13'0 0.0
2016-Jan-31 13:32N 33°46' W 118°13'0 0.0
2016-Jan-31 12:28N 33°46' W 118°13'0 0.0
2016-Jan-31 11:33N 33°46' W 118°13'0 0.0
2016-Jan-31 10:32N 33°46' W 118°13'0 0.0
2016-Jan-31 09:32N 33°46' W 118°13'0 0.0
2016-Jan-31 08:33N 33°46' W 118°13'0 0.0
2016-Jan-31 07:30N 33°46' W 118°13'0 0.0
2016-Jan-31 06:33N 33°46' W 118°13'0 0.0
2016-Jan-31 05:31N 33°46' W 118°13'0 0.0
2016-Jan-31 04:33N 33°46' W 118°13'0 0.0
2016-Jan-31 03:29N 33°46' W 118°13'0 0.0
2016-Jan-31 02:33N 33°46' W 118°13'0 0.0
2016-Jan-31 01:33N 33°46' W 118°13'0 0.0
2016-Jan-31 00:28N 33°46' W 118°13'0 0.0
2016-Jan-30 23:33N 33°46' W 118°13'0 0.0
2016-Jan-30 22:33N 33°46' W 118°13'0 0.0
2016-Jan-30 21:33N 33°46' W 118°13'0 0.0
2016-Jan-30 20:33N 33°46' W 118°13'0 0.0
2016-Jan-30 19:32N 33°46' W 118°13'0 0.0
2016-Jan-30 18:32N 33°46' W 118°13'0 0.0
2016-Jan-30 17:33N 33°46' W 118°13'0 0.0
2016-Jan-30 16:33N 33°46' W 118°13'0 0.0
2016-Jan-30 15:33N 33°46' W 118°13'0 0.0
2016-Jan-30 14:32N 33°46' W 118°13'0 0.0
2016-Jan-30 13:33N 33°46' W 118°13'0 0.0
2016-Jan-30 12:32N 33°46' W 118°13'0 0.0
2016-Jan-30 11:32N 33°46' W 118°13'0 0.0
2016-Jan-30 10:33N 33°46' W 118°13'0 0.0
2016-Jan-30 09:33N 33°46' W 118°13'0 0.0
2016-Jan-30 08:33N 33°46' W 118°13'0 0.0
2016-Jan-30 07:33N 33°46' W 118°13'0 0.0
2016-Jan-30 06:33N 33°46' W 118°13'1 0.9
2016-Jan-30 05:33N 33°45' W 118°13'1514.5
2016-Jan-30 04:33N 33°32' W 118°05'1716.7
2016-Jan-30 03:33N 33°17' W 117°57'1212.6
2016-Jan-30 02:33N 33°06' W 117°51'  

Dump ship's entire track history